sensor_id;sensor_type;location;lat;lon;timestamp;P1;durP1;ratioP1;P2;durP2;ratioP2
21860;SDS011;11095;48.066;8.540;2022-10-31T00:01:12;8.48;;;4.40;;
21860;SDS011;11095;48.066;8.540;2022-10-31T00:03:41;7.20;;;3.90;;
21860;SDS011;11095;48.066;8.540;2022-10-31T00:06:07;7.00;;;3.55;;
21860;SDS011;11095;48.066;8.540;2022-10-31T00:08:33;7.60;;;3.70;;
21860;SDS011;11095;48.066;8.540;2022-10-31T00:10:59;6.15;;;3.92;;
21860;SDS011;11095;48.066;8.540;2022-10-31T00:13:25;6.38;;;4.18;;
21860;SDS011;11095;48.066;8.540;2022-10-31T00:15:50;6.00;;;3.90;;
21860;SDS011;11095;48.066;8.540;2022-10-31T00:18:16;8.48;;;4.20;;
21860;SDS011;11095;48.066;8.540;2022-10-31T00:20:42;8.30;;;4.15;;
21860;SDS011;11095;48.066;8.540;2022-10-31T00:23:08;8.52;;;3.65;;
21860;SDS011;11095;48.066;8.540;2022-10-31T00:25:36;6.95;;;3.42;;
21860;SDS011;11095;48.066;8.540;2022-10-31T00:28:05;4.90;;;3.15;;
21860;SDS011;11095;48.066;8.540;2022-10-31T00:30:31;7.88;;;3.38;;
21860;SDS011;11095;48.066;8.540;2022-10-31T00:32:58;5.88;;;3.42;;
21860;SDS011;11095;48.066;8.540;2022-10-31T00:35:24;6.75;;;3.33;;
21860;SDS011;11095;48.066;8.540;2022-10-31T00:37:50;5.75;;;3.33;;
21860;SDS011;11095;48.066;8.540;2022-10-31T00:40:16;9.25;;;3.80;;
21860;SDS011;11095;48.066;8.540;2022-10-31T00:42:42;6.05;;;3.53;;
21860;SDS011;11095;48.066;8.540;2022-10-31T00:45:08;7.35;;;3.75;;
21860;SDS011;11095;48.066;8.540;2022-10-31T00:47:34;7.45;;;3.70;;
21860;SDS011;11095;48.066;8.540;2022-10-31T00:50:00;7.30;;;3.90;;
21860;SDS011;11095;48.066;8.540;2022-10-31T00:52:26;6.90;;;3.38;;
21860;SDS011;11095;48.066;8.540;2022-10-31T00:54:51;7.05;;;3.80;;
21860;SDS011;11095;48.066;8.540;2022-10-31T00:57:17;7.47;;;3.63;;
21860;SDS011;11095;48.066;8.540;2022-10-31T00:59:42;8.73;;;3.80;;
21860;SDS011;11095;48.066;8.540;2022-10-31T01:02:08;6.97;;;3.58;;
21860;SDS011;11095;48.066;8.540;2022-10-31T01:04:34;8.30;;;4.13;;
21860;SDS011;11095;48.066;8.540;2022-10-31T01:06:59;6.80;;;4.15;;
21860;SDS011;11095;48.066;8.540;2022-10-31T01:09:25;6.30;;;3.40;;
21860;SDS011;11095;48.066;8.540;2022-10-31T01:11:50;9.07;;;3.50;;
21860;SDS011;11095;48.066;8.540;2022-10-31T01:14:16;7.70;;;3.85;;
21860;SDS011;11095;48.066;8.540;2022-10-31T01:16:42;8.45;;;3.90;;
21860;SDS011;11095;48.066;8.540;2022-10-31T01:19:07;7.95;;;3.60;;
21860;SDS011;11095;48.066;8.540;2022-10-31T01:21:33;5.88;;;3.58;;
21860;SDS011;11095;48.066;8.540;2022-10-31T01:23:59;4.85;;;3.55;;
21860;SDS011;11095;48.066;8.540;2022-10-31T01:26:27;6.72;;;3.65;;
21860;SDS011;11095;48.066;8.540;2022-10-31T01:29:00;6.33;;;3.83;;
21860;SDS011;11095;48.066;8.540;2022-10-31T01:31:29;6.82;;;3.70;;
21860;SDS011;11095;48.066;8.540;2022-10-31T01:33:56;7.50;;;3.90;;
21860;SDS011;11095;48.066;8.540;2022-10-31T01:36:23;5.93;;;3.60;;
21860;SDS011;11095;48.066;8.540;2022-10-31T01:38:49;8.60;;;3.80;;
21860;SDS011;11095;48.066;8.540;2022-10-31T01:41:17;6.82;;;3.72;;
21860;SDS011;11095;48.066;8.540;2022-10-31T01:46:23;6.13;;;3.42;;
21860;SDS011;11095;48.066;8.540;2022-10-31T01:48:52;7.28;;;3.60;;
21860;SDS011;11095;48.066;8.540;2022-10-31T01:51:20;7.80;;;3.67;;
21860;SDS011;11095;48.066;8.540;2022-10-31T01:53:50;8.45;;;3.70;;
21860;SDS011;11095;48.066;8.540;2022-10-31T01:56:19;8.25;;;3.70;;
21860;SDS011;11095;48.066;8.540;2022-10-31T01:58:46;7.00;;;3.28;;
21860;SDS011;11095;48.066;8.540;2022-10-31T02:01:11;6.00;;;3.35;;
21860;SDS011;11095;48.066;8.540;2022-10-31T02:03:39;5.63;;;3.20;;
21860;SDS011;11095;48.066;8.540;2022-10-31T02:06:06;5.13;;;3.28;;
21860;SDS011;11095;48.066;8.540;2022-10-31T02:08:38;5.35;;;3.38;;
21860;SDS011;11095;48.066;8.540;2022-10-31T02:11:05;6.85;;;3.40;;
21860;SDS011;11095;48.066;8.540;2022-10-31T02:13:32;6.72;;;3.10;;
21860;SDS011;11095;48.066;8.540;2022-10-31T02:15:59;6.68;;;3.15;;
21860;SDS011;11095;48.066;8.540;2022-10-31T02:18:26;6.13;;;3.08;;
21860;SDS011;11095;48.066;8.540;2022-10-31T02:23:32;5.82;;;2.50;;
21860;SDS011;11095;48.066;8.540;2022-10-31T02:32:05;5.53;;;2.90;;
21860;SDS011;11095;48.066;8.540;2022-10-31T02:34:40;7.55;;;2.47;;
21860;SDS011;11095;48.066;8.540;2022-10-31T02:37:14;6.07;;;2.92;;
21860;SDS011;11095;48.066;8.540;2022-10-31T02:39:59;5.72;;;2.40;;
21860;SDS011;11095;48.066;8.540;2022-10-31T02:42:44;4.35;;;2.60;;
21860;SDS011;11095;48.066;8.540;2022-10-31T02:48:02;4.70;;;2.80;;
21860;SDS011;11095;48.066;8.540;2022-10-31T02:50:34;4.45;;;2.60;;
21860;SDS011;11095;48.066;8.540;2022-10-31T02:53:04;7.35;;;2.60;;
21860;SDS011;11095;48.066;8.540;2022-10-31T02:57:56;5.53;;;2.67;;
21860;SDS011;11095;48.066;8.540;2022-10-31T03:00:26;4.57;;;2.60;;
21860;SDS011;11095;48.066;8.540;2022-10-31T03:02:59;5.30;;;2.20;;
21860;SDS011;11095;48.066;8.540;2022-10-31T03:05:44;4.53;;;2.95;;
21860;SDS011;11095;48.066;8.540;2022-10-31T03:11:06;6.75;;;2.58;;
21860;SDS011;11095;48.066;8.540;2022-10-31T03:16:22;4.25;;;2.47;;
21860;SDS011;11095;48.066;8.540;2022-10-31T03:19:09;6.13;;;2.60;;
21860;SDS011;11095;48.066;8.540;2022-10-31T03:24:09;3.83;;;2.40;;
21860;SDS011;11095;48.066;8.540;2022-10-31T03:26:37;3.90;;;2.50;;
21860;SDS011;11095;48.066;8.540;2022-10-31T03:29:06;4.82;;;2.55;;
21860;SDS011;11095;48.066;8.540;2022-10-31T03:31:35;5.10;;;2.40;;
21860;SDS011;11095;48.066;8.540;2022-10-31T03:34:05;4.55;;;2.92;;
21860;SDS011;11095;48.066;8.540;2022-10-31T03:36:33;4.80;;;2.75;;
21860;SDS011;11095;48.066;8.540;2022-10-31T03:39:01;6.38;;;2.67;;
21860;SDS011;11095;48.066;8.540;2022-10-31T03:41:31;5.10;;;2.72;;
21860;SDS011;11095;48.066;8.540;2022-10-31T03:44:07;3.83;;;2.70;;
21860;SDS011;11095;48.066;8.540;2022-10-31T03:46:36;4.95;;;2.70;;
21860;SDS011;11095;48.066;8.540;2022-10-31T03:49:02;5.35;;;2.50;;
21860;SDS011;11095;48.066;8.540;2022-10-31T03:51:31;3.92;;;2.50;;
21860;SDS011;11095;48.066;8.540;2022-10-31T03:59:44;5.15;;;2.53;;
21860;SDS011;11095;48.066;8.540;2022-10-31T04:02:16;5.35;;;2.97;;
21860;SDS011;11095;48.066;8.540;2022-10-31T04:04:44;3.45;;;2.58;;
21860;SDS011;11095;48.066;8.540;2022-10-31T04:07:13;4.43;;;2.28;;
21860;SDS011;11095;48.066;8.540;2022-10-31T04:09:41;4.03;;;2.70;;
21860;SDS011;11095;48.066;8.540;2022-10-31T04:12:09;7.22;;;2.80;;
21860;SDS011;11095;48.066;8.540;2022-10-31T04:14:39;6.03;;;3.22;;
21860;SDS011;11095;48.066;8.540;2022-10-31T04:17:09;6.95;;;3.22;;
21860;SDS011;11095;48.066;8.540;2022-10-31T04:19:37;7.60;;;3.50;;
21860;SDS011;11095;48.066;8.540;2022-10-31T04:22:03;5.10;;;3.40;;
21860;SDS011;11095;48.066;8.540;2022-10-31T04:24:29;5.03;;;3.20;;
21860;SDS011;11095;48.066;8.540;2022-10-31T04:26:54;6.88;;;3.42;;
21860;SDS011;11095;48.066;8.540;2022-10-31T04:29:20;6.47;;;3.72;;
21860;SDS011;11095;48.066;8.540;2022-10-31T04:31:46;8.18;;;4.03;;
21860;SDS011;11095;48.066;8.540;2022-10-31T04:34:11;6.03;;;3.53;;
21860;SDS011;11095;48.066;8.540;2022-10-31T04:36:37;7.28;;;3.47;;
21860;SDS011;11095;48.066;8.540;2022-10-31T04:39:02;5.63;;;3.28;;
21860;SDS011;11095;48.066;8.540;2022-10-31T04:41:28;5.72;;;3.65;;
21860;SDS011;11095;48.066;8.540;2022-10-31T04:43:54;8.10;;;3.60;;
21860;SDS011;11095;48.066;8.540;2022-10-31T04:46:19;6.40;;;3.70;;
21860;SDS011;11095;48.066;8.540;2022-10-31T04:48:45;7.25;;;3.92;;
21860;SDS011;11095;48.066;8.540;2022-10-31T04:51:11;7.03;;;3.90;;
21860;SDS011;11095;48.066;8.540;2022-10-31T04:53:37;7.05;;;3.90;;
21860;SDS011;11095;48.066;8.540;2022-10-31T04:56:03;7.90;;;4.20;;
21860;SDS011;11095;48.066;8.540;2022-10-31T04:58:29;6.32;;;3.85;;
21860;SDS011;11095;48.066;8.540;2022-10-31T05:00:55;5.80;;;3.72;;
21860;SDS011;11095;48.066;8.540;2022-10-31T05:03:21;8.98;;;4.20;;
21860;SDS011;11095;48.066;8.540;2022-10-31T05:05:46;7.78;;;4.30;;
21860;SDS011;11095;48.066;8.540;2022-10-31T05:08:12;8.63;;;4.28;;
21860;SDS011;11095;48.066;8.540;2022-10-31T05:10:39;7.65;;;4.35;;
21860;SDS011;11095;48.066;8.540;2022-10-31T05:13:04;9.00;;;4.30;;
21860;SDS011;11095;48.066;8.540;2022-10-31T05:15:30;8.80;;;4.70;;
21860;SDS011;11095;48.066;8.540;2022-10-31T05:17:56;8.50;;;4.75;;
21860;SDS011;11095;48.066;8.540;2022-10-31T05:20:26;11.10;;;4.93;;
21860;SDS011;11095;48.066;8.540;2022-10-31T05:22:54;7.50;;;4.40;;
21860;SDS011;11095;48.066;8.540;2022-10-31T05:25:25;7.78;;;4.40;;
21860;SDS011;11095;48.066;8.540;2022-10-31T05:27:52;6.38;;;3.88;;
21860;SDS011;11095;48.066;8.540;2022-10-31T05:30:20;7.82;;;4.20;;
21860;SDS011;11095;48.066;8.540;2022-10-31T05:32:49;8.73;;;3.90;;
21860;SDS011;11095;48.066;8.540;2022-10-31T05:35:17;6.38;;;3.97;;
21860;SDS011;11095;48.066;8.540;2022-10-31T05:37:45;8.10;;;3.90;;
21860;SDS011;11095;48.066;8.540;2022-10-31T05:40:12;6.13;;;3.78;;
21860;SDS011;11095;48.066;8.540;2022-10-31T05:42:39;5.93;;;3.95;;
21860;SDS011;11095;48.066;8.540;2022-10-31T05:45:15;7.75;;;4.00;;
21860;SDS011;11095;48.066;8.540;2022-10-31T05:47:42;6.10;;;3.88;;
21860;SDS011;11095;48.066;8.540;2022-10-31T05:50:14;7.18;;;3.90;;
21860;SDS011;11095;48.066;8.540;2022-10-31T05:52:40;7.72;;;4.45;;
21860;SDS011;11095;48.066;8.540;2022-10-31T05:55:05;6.30;;;3.70;;
21860;SDS011;11095;48.066;8.540;2022-10-31T05:57:31;7.38;;;4.38;;
21860;SDS011;11095;48.066;8.540;2022-10-31T05:59:58;6.50;;;4.00;;
21860;SDS011;11095;48.066;8.540;2022-10-31T06:02:24;6.53;;;4.50;;
21860;SDS011;11095;48.066;8.540;2022-10-31T06:04:50;5.88;;;4.05;;
21860;SDS011;11095;48.066;8.540;2022-10-31T06:07:15;6.18;;;4.18;;
21860;SDS011;11095;48.066;8.540;2022-10-31T06:09:41;5.95;;;4.07;;
21860;SDS011;11095;48.066;8.540;2022-10-31T06:12:06;6.75;;;4.25;;
21860;SDS011;11095;48.066;8.540;2022-10-31T06:14:32;6.50;;;3.83;;
21860;SDS011;11095;48.066;8.540;2022-10-31T06:16:58;7.28;;;3.63;;
21860;SDS011;11095;48.066;8.540;2022-10-31T06:19:23;6.55;;;4.13;;
21860;SDS011;11095;48.066;8.540;2022-10-31T06:21:49;6.75;;;4.47;;
21860;SDS011;11095;48.066;8.540;2022-10-31T06:24:15;9.45;;;4.60;;
21860;SDS011;11095;48.066;8.540;2022-10-31T06:26:40;7.30;;;4.97;;
21860;SDS011;11095;48.066;8.540;2022-10-31T06:29:06;7.70;;;4.82;;
21860;SDS011;11095;48.066;8.540;2022-10-31T06:31:32;6.55;;;4.60;;
21860;SDS011;11095;48.066;8.540;2022-10-31T06:33:57;5.30;;;3.92;;
21860;SDS011;11095;48.066;8.540;2022-10-31T06:36:23;4.95;;;3.38;;
21860;SDS011;11095;48.066;8.540;2022-10-31T06:38:49;4.75;;;3.15;;
21860;SDS011;11095;48.066;8.540;2022-10-31T06:41:14;5.38;;;3.08;;
21860;SDS011;11095;48.066;8.540;2022-10-31T06:43:40;3.88;;;2.65;;
21860;SDS011;11095;48.066;8.540;2022-10-31T06:46:06;4.57;;;2.90;;
21860;SDS011;11095;48.066;8.540;2022-10-31T06:48:32;4.68;;;3.00;;
21860;SDS011;11095;48.066;8.540;2022-10-31T06:50:58;4.43;;;2.70;;
21860;SDS011;11095;48.066;8.540;2022-10-31T06:53:25;4.80;;;2.65;;
21860;SDS011;11095;48.066;8.540;2022-10-31T06:55:57;4.28;;;3.00;;
21860;SDS011;11095;48.066;8.540;2022-10-31T06:58:23;5.45;;;3.30;;
21860;SDS011;11095;48.066;8.540;2022-10-31T07:00:49;5.50;;;3.00;;
21860;SDS011;11095;48.066;8.540;2022-10-31T07:03:15;6.97;;;2.67;;
21860;SDS011;11095;48.066;8.540;2022-10-31T07:05:41;5.75;;;2.70;;
21860;SDS011;11095;48.066;8.540;2022-10-31T07:08:08;3.83;;;2.60;;
21860;SDS011;11095;48.066;8.540;2022-10-31T07:10:37;5.28;;;2.60;;
21860;SDS011;11095;48.066;8.540;2022-10-31T07:13:05;4.70;;;2.50;;
21860;SDS011;11095;48.066;8.540;2022-10-31T07:18:06;4.18;;;2.35;;
21860;SDS011;11095;48.066;8.540;2022-10-31T07:20:33;7.32;;;2.80;;
21860;SDS011;11095;48.066;8.540;2022-10-31T07:22:59;3.50;;;2.30;;
21860;SDS011;11095;48.066;8.540;2022-10-31T07:25:25;4.00;;;2.47;;
21860;SDS011;11095;48.066;8.540;2022-10-31T07:27:51;3.88;;;2.50;;
21860;SDS011;11095;48.066;8.540;2022-10-31T07:30:17;6.00;;;2.60;;
21860;SDS011;11095;48.066;8.540;2022-10-31T07:32:44;6.50;;;3.03;;
21860;SDS011;11095;48.066;8.540;2022-10-31T07:35:15;5.47;;;2.60;;
21860;SDS011;11095;48.066;8.540;2022-10-31T07:37:43;5.50;;;2.65;;
21860;SDS011;11095;48.066;8.540;2022-10-31T07:40:08;6.35;;;2.70;;
21860;SDS011;11095;48.066;8.540;2022-10-31T07:42:45;4.15;;;2.47;;
21860;SDS011;11095;48.066;8.540;2022-10-31T07:45:13;3.25;;;2.40;;
21860;SDS011;11095;48.066;8.540;2022-10-31T07:47:44;4.75;;;2.40;;
21860;SDS011;11095;48.066;8.540;2022-10-31T07:50:12;3.83;;;2.55;;
21860;SDS011;11095;48.066;8.540;2022-10-31T07:52:39;4.40;;;2.42;;
21860;SDS011;11095;48.066;8.540;2022-10-31T07:55:05;2.80;;;2.28;;
21860;SDS011;11095;48.066;8.540;2022-10-31T07:57:31;3.65;;;2.10;;
21860;SDS011;11095;48.066;8.540;2022-10-31T07:59:57;6.75;;;2.75;;
21860;SDS011;11095;48.066;8.540;2022-10-31T08:02:23;7.25;;;2.60;;
21860;SDS011;11095;48.066;8.540;2022-10-31T08:04:50;5.70;;;2.35;;
21860;SDS011;11095;48.066;8.540;2022-10-31T08:07:15;4.20;;;2.60;;
21860;SDS011;11095;48.066;8.540;2022-10-31T08:09:41;4.65;;;2.53;;
21860;SDS011;11095;48.066;8.540;2022-10-31T08:12:07;5.25;;;2.65;;
21860;SDS011;11095;48.066;8.540;2022-10-31T08:14:33;5.63;;;2.40;;
21860;SDS011;11095;48.066;8.540;2022-10-31T08:16:58;4.63;;;2.40;;
21860;SDS011;11095;48.066;8.540;2022-10-31T08:19:24;5.03;;;2.60;;
21860;SDS011;11095;48.066;8.540;2022-10-31T08:21:50;5.30;;;2.30;;
21860;SDS011;11095;48.066;8.540;2022-10-31T08:24:18;3.58;;;2.25;;
21860;SDS011;11095;48.066;8.540;2022-10-31T08:26:43;3.47;;;2.17;;
21860;SDS011;11095;48.066;8.540;2022-10-31T08:29:09;4.68;;;2.30;;
21860;SDS011;11095;48.066;8.540;2022-10-31T08:31:35;2.90;;;2.25;;
21860;SDS011;11095;48.066;8.540;2022-10-31T08:34:00;5.50;;;2.38;;
21860;SDS011;11095;48.066;8.540;2022-10-31T08:36:26;4.10;;;2.30;;
21860;SDS011;11095;48.066;8.540;2022-10-31T08:38:53;4.00;;;2.40;;
21860;SDS011;11095;48.066;8.540;2022-10-31T08:41:18;6.20;;;2.83;;
21860;SDS011;11095;48.066;8.540;2022-10-31T08:43:44;4.43;;;2.72;;
21860;SDS011;11095;48.066;8.540;2022-10-31T08:46:10;5.03;;;2.67;;
21860;SDS011;11095;48.066;8.540;2022-10-31T08:48:36;4.72;;;2.60;;
21860;SDS011;11095;48.066;8.540;2022-10-31T08:51:02;5.85;;;3.00;;
21860;SDS011;11095;48.066;8.540;2022-10-31T08:53:28;5.78;;;2.80;;
21860;SDS011;11095;48.066;8.540;2022-10-31T08:55:54;4.57;;;2.58;;
21860;SDS011;11095;48.066;8.540;2022-10-31T08:58:21;6.53;;;2.92;;
21860;SDS011;11095;48.066;8.540;2022-10-31T09:00:48;5.70;;;3.33;;
21860;SDS011;11095;48.066;8.540;2022-10-31T09:03:19;4.82;;;3.00;;
21860;SDS011;11095;48.066;8.540;2022-10-31T09:05:47;6.43;;;3.05;;
21860;SDS011;11095;48.066;8.540;2022-10-31T09:08:13;4.10;;;2.95;;
21860;SDS011;11095;48.066;8.540;2022-10-31T09:10:39;6.22;;;3.40;;
21860;SDS011;11095;48.066;8.540;2022-10-31T09:13:06;5.45;;;2.72;;
21860;SDS011;11095;48.066;8.540;2022-10-31T09:15:35;6.57;;;2.92;;
21860;SDS011;11095;48.066;8.540;2022-10-31T09:18:03;5.65;;;3.00;;
21860;SDS011;11095;48.066;8.540;2022-10-31T09:20:30;5.88;;;2.95;;
21860;SDS011;11095;48.066;8.540;2022-10-31T09:22:57;9.80;;;3.38;;
21860;SDS011;11095;48.066;8.540;2022-10-31T09:25:24;6.05;;;3.47;;
21860;SDS011;11095;48.066;8.540;2022-10-31T09:27:50;6.00;;;3.63;;
21860;SDS011;11095;48.066;8.540;2022-10-31T09:30:16;4.50;;;2.78;;
21860;SDS011;11095;48.066;8.540;2022-10-31T09:32:41;5.13;;;2.38;;
21860;SDS011;11095;48.066;8.540;2022-10-31T09:35:07;3.63;;;2.38;;
21860;SDS011;11095;48.066;8.540;2022-10-31T09:37:33;3.75;;;2.30;;
21860;SDS011;11095;48.066;8.540;2022-10-31T09:40:00;3.30;;;2.42;;
21860;SDS011;11095;48.066;8.540;2022-10-31T09:50:18;6.15;;;2.60;;
21860;SDS011;11095;48.066;8.540;2022-10-31T09:52:57;5.63;;;2.42;;
21860;SDS011;11095;48.066;8.540;2022-10-31T09:55:40;3.90;;;2.08;;
21860;SDS011;11095;48.066;8.540;2022-10-31T09:58:15;7.35;;;2.53;;
21860;SDS011;11095;48.066;8.540;2022-10-31T10:00:45;7.78;;;2.53;;
21860;SDS011;11095;48.066;8.540;2022-10-31T10:06:18;4.57;;;2.33;;
21860;SDS011;11095;48.066;8.540;2022-10-31T10:08:47;4.57;;;2.28;;
21860;SDS011;11095;48.066;8.540;2022-10-31T10:22:43;4.47;;;2.28;;
21860;SDS011;11095;48.066;8.540;2022-10-31T10:30:50;4.70;;;2.17;;
21860;SDS011;11095;48.066;8.540;2022-10-31T10:34:11;5.25;;;2.30;;
21860;SDS011;11095;48.066;8.540;2022-10-31T10:36:42;4.95;;;2.22;;
21860;SDS011;11095;48.066;8.540;2022-10-31T10:39:18;4.28;;;2.33;;
21860;SDS011;11095;48.066;8.540;2022-10-31T10:41:48;3.83;;;1.77;;
21860;SDS011;11095;48.066;8.540;2022-10-31T10:44:37;4.28;;;2.30;;
21860;SDS011;11095;48.066;8.540;2022-10-31T10:47:24;4.65;;;2.28;;
21860;SDS011;11095;48.066;8.540;2022-10-31T10:56:21;5.03;;;2.13;;
21860;SDS011;11095;48.066;8.540;2022-10-31T10:58:54;3.42;;;2.10;;
21860;SDS011;11095;48.066;8.540;2022-10-31T11:01:21;4.53;;;2.10;;
21860;SDS011;11095;48.066;8.540;2022-10-31T11:03:47;5.40;;;2.25;;
21860;SDS011;11095;48.066;8.540;2022-10-31T11:06:21;5.72;;;2.28;;
21860;SDS011;11095;48.066;8.540;2022-10-31T11:08:50;5.75;;;2.22;;
21860;SDS011;11095;48.066;8.540;2022-10-31T11:13:43;4.72;;;2.25;;
21860;SDS011;11095;48.066;8.540;2022-10-31T11:16:13;4.85;;;2.35;;
21860;SDS011;11095;48.066;8.540;2022-10-31T11:18:52;5.90;;;2.42;;
21860;SDS011;11095;48.066;8.540;2022-10-31T11:21:20;5.13;;;2.60;;
21860;SDS011;11095;48.066;8.540;2022-10-31T11:26:20;4.53;;;2.60;;
21860;SDS011;11095;48.066;8.540;2022-10-31T11:28:56;5.32;;;2.40;;
21860;SDS011;11095;48.066;8.540;2022-10-31T11:31:22;3.55;;;2.60;;
21860;SDS011;11095;48.066;8.540;2022-10-31T11:33:50;5.38;;;2.28;;
21860;SDS011;11095;48.066;8.540;2022-10-31T11:36:24;3.38;;;2.20;;
21860;SDS011;11095;48.066;8.540;2022-10-31T11:38:54;5.35;;;2.30;;
21860;SDS011;11095;48.066;8.540;2022-10-31T11:46:43;3.83;;;2.25;;
21860;SDS011;11095;48.066;8.540;2022-10-31T11:49:18;7.38;;;2.95;;
21860;SDS011;11095;48.066;8.540;2022-10-31T11:51:55;5.68;;;2.47;;
21860;SDS011;11095;48.066;8.540;2022-10-31T11:54:23;5.72;;;2.85;;
21860;SDS011;11095;48.066;8.540;2022-10-31T11:56:55;5.13;;;2.78;;
21860;SDS011;11095;48.066;8.540;2022-10-31T11:59:24;4.68;;;2.65;;
21860;SDS011;11095;48.066;8.540;2022-10-31T12:01:55;5.40;;;2.63;;
21860;SDS011;11095;48.066;8.540;2022-10-31T12:04:30;7.95;;;2.72;;
21860;SDS011;11095;48.066;8.540;2022-10-31T12:07:06;5.60;;;2.53;;
21860;SDS011;11095;48.066;8.540;2022-10-31T12:09:33;6.45;;;2.50;;
21860;SDS011;11095;48.066;8.540;2022-10-31T12:17:17;4.35;;;2.40;;
21860;SDS011;11095;48.066;8.540;2022-10-31T12:27:34;6.45;;;2.60;;
21860;SDS011;11095;48.066;8.540;2022-10-31T12:30:24;3.22;;;2.17;;
21860;SDS011;11095;48.066;8.540;2022-10-31T12:38:41;4.68;;;2.17;;
21860;SDS011;11095;48.066;8.540;2022-10-31T12:41:19;4.18;;;2.10;;
21860;SDS011;11095;48.066;8.540;2022-10-31T12:57:56;5.13;;;2.20;;
21860;SDS011;11095;48.066;8.540;2022-10-31T13:00:27;6.30;;;2.25;;
21860;SDS011;11095;48.066;8.540;2022-10-31T13:05:46;5.30;;;1.95;;
21860;SDS011;11095;48.066;8.540;2022-10-31T13:08:39;4.43;;;2.10;;
21860;SDS011;11095;48.066;8.540;2022-10-31T13:14:28;5.07;;;1.90;;
21860;SDS011;11095;48.066;8.540;2022-10-31T13:16:59;5.30;;;2.10;;
21860;SDS011;11095;48.066;8.540;2022-10-31T13:19:47;7.38;;;2.20;;
21860;SDS011;11095;48.066;8.540;2022-10-31T13:22:15;5.40;;;1.90;;
21860;SDS011;11095;48.066;8.540;2022-10-31T13:24:54;3.88;;;1.80;;
21860;SDS011;11095;48.066;8.540;2022-10-31T13:27:25;5.80;;;1.90;;
21860;SDS011;11095;48.066;8.540;2022-10-31T13:30:15;3.65;;;1.70;;
21860;SDS011;11095;48.066;8.540;2022-10-31T13:35:36;5.25;;;1.77;;
21860;SDS011;11095;48.066;8.540;2022-10-31T13:38:23;4.85;;;1.50;;
21860;SDS011;11095;48.066;8.540;2022-10-31T13:46:37;4.60;;;1.73;;
21860;SDS011;11095;48.066;8.540;2022-10-31T13:49:18;3.63;;;1.40;;
21860;SDS011;11095;48.066;8.540;2022-10-31T13:51:49;3.47;;;1.55;;
21860;SDS011;11095;48.066;8.540;2022-10-31T13:54:22;5.88;;;2.03;;
21860;SDS011;11095;48.066;8.540;2022-10-31T13:56:56;5.75;;;1.80;;
21860;SDS011;11095;48.066;8.540;2022-10-31T13:59:22;5.82;;;1.85;;
21860;SDS011;11095;48.066;8.540;2022-10-31T14:01:51;3.10;;;1.50;;
21860;SDS011;11095;48.066;8.540;2022-10-31T14:04:22;4.40;;;1.95;;
21860;SDS011;11095;48.066;8.540;2022-10-31T14:17:47;4.40;;;1.85;;
21860;SDS011;11095;48.066;8.540;2022-10-31T14:22:42;5.78;;;1.92;;
21860;SDS011;11095;48.066;8.540;2022-10-31T14:25:27;5.68;;;2.10;;
21860;SDS011;11095;48.066;8.540;2022-10-31T14:27:53;4.00;;;1.92;;
21860;SDS011;11095;48.066;8.540;2022-10-31T14:30:22;4.30;;;2.17;;
21860;SDS011;11095;48.066;8.540;2022-10-31T14:32:54;4.72;;;2.05;;
21860;SDS011;11095;48.066;8.540;2022-10-31T14:35:24;4.13;;;2.15;;
21860;SDS011;11095;48.066;8.540;2022-10-31T14:38:20;4.63;;;1.83;;
21860;SDS011;11095;48.066;8.540;2022-10-31T14:43:24;3.65;;;1.70;;
21860;SDS011;11095;48.066;8.540;2022-10-31T14:46:18;5.38;;;2.00;;
21860;SDS011;11095;48.066;8.540;2022-10-31T14:51:40;7.28;;;2.50;;
21860;SDS011;11095;48.066;8.540;2022-10-31T14:54:14;5.63;;;2.67;;
21860;SDS011;11095;48.066;8.540;2022-10-31T14:56:53;4.60;;;2.13;;
21860;SDS011;11095;48.066;8.540;2022-10-31T14:59:24;5.90;;;2.45;;
21860;SDS011;11095;48.066;8.540;2022-10-31T15:01:55;4.63;;;2.00;;
21860;SDS011;11095;48.066;8.540;2022-10-31T15:04:28;3.97;;;1.90;;
21860;SDS011;11095;48.066;8.540;2022-10-31T15:09:29;3.83;;;2.30;;
21860;SDS011;11095;48.066;8.540;2022-10-31T15:12:00;8.93;;;3.15;;
21860;SDS011;11095;48.066;8.540;2022-10-31T15:14:39;6.65;;;2.75;;
21860;SDS011;11095;48.066;8.540;2022-10-31T15:17:05;4.35;;;2.25;;
21860;SDS011;11095;48.066;8.540;2022-10-31T15:19:32;4.35;;;2.13;;
21860;SDS011;11095;48.066;8.540;2022-10-31T15:21:59;6.05;;;2.10;;
21860;SDS011;11095;48.066;8.540;2022-10-31T15:24:38;3.97;;;2.00;;
21860;SDS011;11095;48.066;8.540;2022-10-31T15:27:04;5.53;;;2.30;;
21860;SDS011;11095;48.066;8.540;2022-10-31T15:29:30;6.93;;;3.00;;
21860;SDS011;11095;48.066;8.540;2022-10-31T15:31:57;5.97;;;2.50;;
21860;SDS011;11095;48.066;8.540;2022-10-31T15:34:41;5.32;;;2.10;;
21860;SDS011;11095;48.066;8.540;2022-10-31T15:37:14;6.63;;;2.40;;
21860;SDS011;11095;48.066;8.540;2022-10-31T15:39:42;7.65;;;2.80;;
21860;SDS011;11095;48.066;8.540;2022-10-31T15:44:56;6.03;;;2.90;;
21860;SDS011;11095;48.066;8.540;2022-10-31T15:47:45;7.13;;;3.05;;
21860;SDS011;11095;48.066;8.540;2022-10-31T15:50:30;7.25;;;2.83;;
21860;SDS011;11095;48.066;8.540;2022-10-31T15:53:05;6.03;;;3.10;;
21860;SDS011;11095;48.066;8.540;2022-10-31T15:55:45;7.20;;;3.60;;
21860;SDS011;11095;48.066;8.540;2022-10-31T15:58:16;5.53;;;3.08;;
21860;SDS011;11095;48.066;8.540;2022-10-31T16:00:43;8.98;;;3.65;;
21860;SDS011;11095;48.066;8.540;2022-10-31T16:05:59;7.80;;;3.03;;
21860;SDS011;11095;48.066;8.540;2022-10-31T16:11:13;12.60;;;7.10;;
21860;SDS011;11095;48.066;8.540;2022-10-31T16:14:13;11.30;;;6.90;;
21860;SDS011;11095;48.066;8.540;2022-10-31T16:16:42;11.52;;;6.70;;
21860;SDS011;11095;48.066;8.540;2022-10-31T16:19:18;11.80;;;6.53;;
21860;SDS011;11095;48.066;8.540;2022-10-31T16:21:51;9.15;;;5.45;;
21860;SDS011;11095;48.066;8.540;2022-10-31T16:24:27;7.57;;;4.90;;
21860;SDS011;11095;48.066;8.540;2022-10-31T16:27:04;10.05;;;4.75;;
21860;SDS011;11095;48.066;8.540;2022-10-31T16:29:33;9.45;;;4.65;;
21860;SDS011;11095;48.066;8.540;2022-10-31T16:32:03;7.82;;;4.38;;
21860;SDS011;11095;48.066;8.540;2022-10-31T16:34:29;8.77;;;4.78;;
21860;SDS011;11095;48.066;8.540;2022-10-31T16:36:56;10.23;;;5.60;;
21860;SDS011;11095;48.066;8.540;2022-10-31T16:39:22;10.25;;;5.18;;
21860;SDS011;11095;48.066;8.540;2022-10-31T16:41:48;10.02;;;5.65;;
21860;SDS011;11095;48.066;8.540;2022-10-31T16:44:18;10.88;;;6.35;;
21860;SDS011;11095;48.066;8.540;2022-10-31T16:46:47;9.65;;;6.15;;
21860;SDS011;11095;48.066;8.540;2022-10-31T16:49:12;10.45;;;6.72;;
21860;SDS011;11095;48.066;8.540;2022-10-31T16:51:40;11.07;;;6.68;;
21860;SDS011;11095;48.066;8.540;2022-10-31T16:54:06;12.30;;;7.78;;
21860;SDS011;11095;48.066;8.540;2022-10-31T16:56:34;11.57;;;7.28;;
21860;SDS011;11095;48.066;8.540;2022-10-31T16:59:02;13.93;;;7.10;;
21860;SDS011;11095;48.066;8.540;2022-10-31T17:01:31;12.47;;;7.20;;
21860;SDS011;11095;48.066;8.540;2022-10-31T17:03:57;16.25;;;10.27;;
21860;SDS011;11095;48.066;8.540;2022-10-31T17:06:23;22.88;;;13.30;;
21860;SDS011;11095;48.066;8.540;2022-10-31T17:08:52;23.98;;;12.48;;
21860;SDS011;11095;48.066;8.540;2022-10-31T17:11:19;15.82;;;9.98;;
21860;SDS011;11095;48.066;8.540;2022-10-31T17:13:47;14.05;;;8.90;;
21860;SDS011;11095;48.066;8.540;2022-10-31T17:16:13;17.27;;;9.30;;
21860;SDS011;11095;48.066;8.540;2022-10-31T17:18:39;17.00;;;9.23;;
21860;SDS011;11095;48.066;8.540;2022-10-31T17:21:09;16.23;;;9.77;;
21860;SDS011;11095;48.066;8.540;2022-10-31T17:23:42;15.65;;;9.45;;
21860;SDS011;11095;48.066;8.540;2022-10-31T17:26:09;13.77;;;7.45;;
21860;SDS011;11095;48.066;8.540;2022-10-31T17:28:35;11.98;;;5.95;;
21860;SDS011;11095;48.066;8.540;2022-10-31T17:31:01;9.77;;;5.38;;
21860;SDS011;11095;48.066;8.540;2022-10-31T17:33:26;14.75;;;7.50;;